sensor_id;sensor_type;location;lat;lon;timestamp;P1;durP1;ratioP1;P2;durP2;ratioP2
26223;SDS011;14820;48.682;8.890;2023-04-24T00:01:41;1.98;;;0.65;;
26223;SDS011;14820;48.682;8.890;2023-04-24T00:04:07;2.28;;;0.77;;
26223;SDS011;14820;48.682;8.890;2023-04-24T00:06:35;1.92;;;0.85;;
26223;SDS011;14820;48.682;8.890;2023-04-24T00:09:02;0.70;;;0.70;;
26223;SDS011;14820;48.682;8.890;2023-04-24T00:11:28;1.35;;;0.80;;
26223;SDS011;14820;48.682;8.890;2023-04-24T00:13:54;1.17;;;0.77;;
26223;SDS011;14820;48.682;8.890;2023-04-24T00:16:21;1.55;;;0.70;;
26223;SDS011;14820;48.682;8.890;2023-04-24T00:18:47;0.63;;;0.63;;
26223;SDS011;14820;48.682;8.890;2023-04-24T00:21:13;1.38;;;0.73;;
26223;SDS011;14820;48.682;8.890;2023-04-24T00:23:41;2.33;;;0.70;;
26223;SDS011;14820;48.682;8.890;2023-04-24T00:26:06;1.05;;;0.70;;
26223;SDS011;14820;48.682;8.890;2023-04-24T00:28:33;0.98;;;0.65;;
26223;SDS011;14820;48.682;8.890;2023-04-24T00:30:58;2.72;;;0.80;;
26223;SDS011;14820;48.682;8.890;2023-04-24T00:33:24;4.10;;;0.90;;
26223;SDS011;14820;48.682;8.890;2023-04-24T00:35:49;1.75;;;0.80;;
26223;SDS011;14820;48.682;8.890;2023-04-24T00:38:15;1.77;;;1.08;;
26223;SDS011;14820;48.682;8.890;2023-04-24T00:40:41;1.15;;;0.90;;
26223;SDS011;14820;48.682;8.890;2023-04-24T00:43:06;1.88;;;0.80;;
26223;SDS011;14820;48.682;8.890;2023-04-24T00:45:32;1.50;;;0.70;;
26223;SDS011;14820;48.682;8.890;2023-04-24T00:47:58;1.50;;;0.80;;
26223;SDS011;14820;48.682;8.890;2023-04-24T00:50:25;2.25;;;1.00;;
26223;SDS011;14820;48.682;8.890;2023-04-24T00:52:51;2.13;;;0.75;;
26223;SDS011;14820;48.682;8.890;2023-04-24T00:55:17;1.42;;;0.80;;
26223;SDS011;14820;48.682;8.890;2023-04-24T00:57:43;1.50;;;0.80;;
26223;SDS011;14820;48.682;8.890;2023-04-24T01:00:10;3.08;;;0.80;;
26223;SDS011;14820;48.682;8.890;2023-04-24T01:02:39;1.98;;;0.80;;
26223;SDS011;14820;48.682;8.890;2023-04-24T01:05:10;3.15;;;1.30;;
26223;SDS011;14820;48.682;8.890;2023-04-24T01:07:37;1.38;;;0.90;;
26223;SDS011;14820;48.682;8.890;2023-04-24T01:10:04;5.32;;;0.90;;
26223;SDS011;14820;48.682;8.890;2023-04-24T01:12:30;3.10;;;0.90;;
26223;SDS011;14820;48.682;8.890;2023-04-24T01:14:57;1.10;;;0.70;;
26223;SDS011;14820;48.682;8.890;2023-04-24T01:17:23;1.73;;;0.95;;
26223;SDS011;14820;48.682;8.890;2023-04-24T01:19:48;2.67;;;0.90;;
26223;SDS011;14820;48.682;8.890;2023-04-24T01:22:14;2.97;;;0.93;;
26223;SDS011;14820;48.682;8.890;2023-04-24T01:24:41;0.90;;;0.80;;
26223;SDS011;14820;48.682;8.890;2023-04-24T01:27:08;4.05;;;1.10;;
26223;SDS011;14820;48.682;8.890;2023-04-24T01:29:35;2.65;;;0.93;;
26223;SDS011;14820;48.682;8.890;2023-04-24T01:32:02;1.15;;;0.85;;
26223;SDS011;14820;48.682;8.890;2023-04-24T01:34:28;2.78;;;0.80;;
26223;SDS011;14820;48.682;8.890;2023-04-24T01:36:54;1.60;;;0.77;;
26223;SDS011;14820;48.682;8.890;2023-04-24T01:39:21;2.30;;;0.90;;
26223;SDS011;14820;48.682;8.890;2023-04-24T01:41:48;3.80;;;1.00;;
26223;SDS011;14820;48.682;8.890;2023-04-24T01:44:15;1.35;;;0.93;;
26223;SDS011;14820;48.682;8.890;2023-04-24T01:46:41;2.03;;;1.00;;
26223;SDS011;14820;48.682;8.890;2023-04-24T01:49:07;2.80;;;0.90;;
26223;SDS011;14820;48.682;8.890;2023-04-24T01:51:32;1.30;;;0.80;;
26223;SDS011;14820;48.682;8.890;2023-04-24T01:53:58;2.78;;;0.88;;
26223;SDS011;14820;48.682;8.890;2023-04-24T01:56:24;1.70;;;1.00;;
26223;SDS011;14820;48.682;8.890;2023-04-24T01:58:50;0.93;;;0.68;;
26223;SDS011;14820;48.682;8.890;2023-04-24T02:01:23;1.67;;;0.75;;
26223;SDS011;14820;48.682;8.890;2023-04-24T02:03:49;5.63;;;1.10;;
26223;SDS011;14820;48.682;8.890;2023-04-24T02:06:15;6.70;;;1.08;;
26223;SDS011;14820;48.682;8.890;2023-04-24T02:08:41;2.25;;;0.93;;
26223;SDS011;14820;48.682;8.890;2023-04-24T02:11:08;2.83;;;1.02;;
26223;SDS011;14820;48.682;8.890;2023-04-24T02:13:34;1.92;;;0.80;;
26223;SDS011;14820;48.682;8.890;2023-04-24T02:16:00;1.38;;;1.02;;
26223;SDS011;14820;48.682;8.890;2023-04-24T02:18:26;2.30;;;0.88;;
26223;SDS011;14820;48.682;8.890;2023-04-24T02:20:51;0.85;;;0.80;;
26223;SDS011;14820;48.682;8.890;2023-04-24T02:23:17;3.38;;;0.90;;
26223;SDS011;14820;48.682;8.890;2023-04-24T02:25:43;3.05;;;0.90;;
26223;SDS011;14820;48.682;8.890;2023-04-24T02:28:08;2.83;;;1.10;;
26223;SDS011;14820;48.682;8.890;2023-04-24T02:30:34;1.92;;;1.00;;
26223;SDS011;14820;48.682;8.890;2023-04-24T02:33:00;5.40;;;1.20;;
26223;SDS011;14820;48.682;8.890;2023-04-24T02:35:26;3.00;;;0.90;;
26223;SDS011;14820;48.682;8.890;2023-04-24T02:37:51;1.20;;;0.80;;
26223;SDS011;14820;48.682;8.890;2023-04-24T02:40:17;1.75;;;1.00;;
26223;SDS011;14820;48.682;8.890;2023-04-24T02:42:42;3.00;;;0.80;;
26223;SDS011;14820;48.682;8.890;2023-04-24T02:45:08;1.38;;;0.80;;
26223;SDS011;14820;48.682;8.890;2023-04-24T02:47:34;2.80;;;0.80;;
26223;SDS011;14820;48.682;8.890;2023-04-24T02:50:00;2.63;;;1.00;;
26223;SDS011;14820;48.682;8.890;2023-04-24T02:52:27;2.67;;;1.00;;
26223;SDS011;14820;48.682;8.890;2023-04-24T02:54:53;2.35;;;0.93;;
26223;SDS011;14820;48.682;8.890;2023-04-24T02:57:19;1.67;;;0.80;;
26223;SDS011;14820;48.682;8.890;2023-04-24T02:59:44;2.50;;;0.90;;
26223;SDS011;14820;48.682;8.890;2023-04-24T03:02:10;7.15;;;1.35;;
26223;SDS011;14820;48.682;8.890;2023-04-24T03:04:36;6.07;;;1.08;;
26223;SDS011;14820;48.682;8.890;2023-04-24T03:07:01;2.58;;;1.25;;
26223;SDS011;14820;48.682;8.890;2023-04-24T03:09:27;3.30;;;1.20;;
26223;SDS011;14820;48.682;8.890;2023-04-24T03:11:53;2.40;;;1.48;;
26223;SDS011;14820;48.682;8.890;2023-04-24T03:14:18;2.40;;;1.30;;
26223;SDS011;14820;48.682;8.890;2023-04-24T03:16:44;1.83;;;1.10;;
26223;SDS011;14820;48.682;8.890;2023-04-24T03:19:10;2.00;;;1.00;;
26223;SDS011;14820;48.682;8.890;2023-04-24T03:21:35;1.48;;;0.90;;
26223;SDS011;14820;48.682;8.890;2023-04-24T03:24:05;2.25;;;1.20;;
26223;SDS011;14820;48.682;8.890;2023-04-24T03:26:34;5.05;;;1.10;;
26223;SDS011;14820;48.682;8.890;2023-04-24T03:29:00;5.40;;;1.10;;
26223;SDS011;14820;48.682;8.890;2023-04-24T03:31:26;3.67;;;0.90;;
26223;SDS011;14820;48.682;8.890;2023-04-24T03:33:52;1.40;;;0.88;;
26223;SDS011;14820;48.682;8.890;2023-04-24T03:36:17;3.45;;;1.02;;
26223;SDS011;14820;48.682;8.890;2023-04-24T03:38:45;1.75;;;1.00;;
26223;SDS011;14820;48.682;8.890;2023-04-24T03:41:11;2.40;;;1.00;;
26223;SDS011;14820;48.682;8.890;2023-04-24T03:43:37;2.33;;;0.82;;
26223;SDS011;14820;48.682;8.890;2023-04-24T03:46:04;2.55;;;1.00;;
26223;SDS011;14820;48.682;8.890;2023-04-24T03:48:30;4.78;;;1.10;;
26223;SDS011;14820;48.682;8.890;2023-04-24T03:50:55;2.28;;;0.90;;
26223;SDS011;14820;48.682;8.890;2023-04-24T03:53:21;3.22;;;1.00;;
26223;SDS011;14820;48.682;8.890;2023-04-24T03:55:47;1.77;;;1.00;;
26223;SDS011;14820;48.682;8.890;2023-04-24T03:58:12;1.83;;;0.90;;
26223;SDS011;14820;48.682;8.890;2023-04-24T04:00:42;2.75;;;1.20;;
26223;SDS011;14820;48.682;8.890;2023-04-24T04:03:09;3.65;;;0.98;;
26223;SDS011;14820;48.682;8.890;2023-04-24T04:05:35;1.73;;;0.75;;
26223;SDS011;14820;48.682;8.890;2023-04-24T04:08:00;1.15;;;0.80;;
26223;SDS011;14820;48.682;8.890;2023-04-24T04:10:26;2.80;;;0.93;;
26223;SDS011;14820;48.682;8.890;2023-04-24T04:12:52;2.92;;;1.00;;
26223;SDS011;14820;48.682;8.890;2023-04-24T04:15:17;3.05;;;1.30;;
26223;SDS011;14820;48.682;8.890;2023-04-24T04:17:43;2.28;;;1.20;;
26223;SDS011;14820;48.682;8.890;2023-04-24T04:20:09;3.92;;;1.17;;
26223;SDS011;14820;48.682;8.890;2023-04-24T04:22:36;1.10;;;0.80;;
26223;SDS011;14820;48.682;8.890;2023-04-24T04:25:02;1.45;;;1.13;;
26223;SDS011;14820;48.682;8.890;2023-04-24T04:27:28;1.55;;;1.17;;
26223;SDS011;14820;48.682;8.890;2023-04-24T04:29:56;2.75;;;1.33;;
26223;SDS011;14820;48.682;8.890;2023-04-24T04:32:24;2.13;;;1.48;;
26223;SDS011;14820;48.682;8.890;2023-04-24T04:34:51;1.92;;;1.17;;
26223;SDS011;14820;48.682;8.890;2023-04-24T04:37:18;1.98;;;1.45;;
26223;SDS011;14820;48.682;8.890;2023-04-24T04:39:44;1.30;;;1.10;;
26223;SDS011;14820;48.682;8.890;2023-04-24T04:42:10;1.63;;;1.30;;
26223;SDS011;14820;48.682;8.890;2023-04-24T04:44:35;2.50;;;1.52;;
26223;SDS011;14820;48.682;8.890;2023-04-24T04:47:01;3.80;;;1.50;;
26223;SDS011;14820;48.682;8.890;2023-04-24T04:49:30;1.88;;;1.33;;
26223;SDS011;14820;48.682;8.890;2023-04-24T04:51:56;1.70;;;1.38;;
26223;SDS011;14820;48.682;8.890;2023-04-24T04:54:22;2.47;;;1.40;;
26223;SDS011;14820;48.682;8.890;2023-04-24T04:56:49;1.77;;;1.60;;
26223;SDS011;14820;48.682;8.890;2023-04-24T04:59:15;3.13;;;1.40;;
26223;SDS011;14820;48.682;8.890;2023-04-24T05:01:41;1.40;;;1.23;;
26223;SDS011;14820;48.682;8.890;2023-04-24T05:04:07;3.10;;;1.70;;
26223;SDS011;14820;48.682;8.890;2023-04-24T05:06:32;1.65;;;1.35;;
26223;SDS011;14820;48.682;8.890;2023-04-24T05:08:58;3.13;;;1.45;;
26223;SDS011;14820;48.682;8.890;2023-04-24T05:11:24;3.05;;;1.40;;
26223;SDS011;14820;48.682;8.890;2023-04-24T05:13:50;2.00;;;1.40;;
26223;SDS011;14820;48.682;8.890;2023-04-24T05:16:15;2.85;;;1.67;;
26223;SDS011;14820;48.682;8.890;2023-04-24T05:18:41;2.00;;;1.50;;
26223;SDS011;14820;48.682;8.890;2023-04-24T05:21:06;2.80;;;1.90;;
26223;SDS011;14820;48.682;8.890;2023-04-24T05:23:32;2.58;;;1.75;;
26223;SDS011;14820;48.682;8.890;2023-04-24T05:25:58;2.15;;;1.48;;
26223;SDS011;14820;48.682;8.890;2023-04-24T05:28:23;2.53;;;1.70;;
26223;SDS011;14820;48.682;8.890;2023-04-24T05:30:53;2.58;;;1.48;;
26223;SDS011;14820;48.682;8.890;2023-04-24T05:33:21;2.83;;;1.52;;
26223;SDS011;14820;48.682;8.890;2023-04-24T05:35:47;2.67;;;1.58;;
26223;SDS011;14820;48.682;8.890;2023-04-24T05:38:13;1.73;;;1.58;;
26223;SDS011;14820;48.682;8.890;2023-04-24T05:40:42;2.00;;;1.80;;
26223;SDS011;14820;48.682;8.890;2023-04-24T05:43:08;5.18;;;2.83;;
26223;SDS011;14820;48.682;8.890;2023-04-24T05:45:33;3.40;;;2.60;;
26223;SDS011;14820;48.682;8.890;2023-04-24T05:48:01;6.78;;;3.30;;
26223;SDS011;14820;48.682;8.890;2023-04-24T05:50:27;5.30;;;3.38;;
26223;SDS011;14820;48.682;8.890;2023-04-24T05:52:52;4.85;;;2.92;;
26223;SDS011;14820;48.682;8.890;2023-04-24T05:55:18;4.47;;;2.83;;
26223;SDS011;14820;48.682;8.890;2023-04-24T05:57:44;3.28;;;2.40;;
26223;SDS011;14820;48.682;8.890;2023-04-24T06:00:12;4.32;;;2.17;;
26223;SDS011;14820;48.682;8.890;2023-04-24T06:02:38;2.90;;;2.20;;
26223;SDS011;14820;48.682;8.890;2023-04-24T06:05:04;6.22;;;2.13;;
26223;SDS011;14820;48.682;8.890;2023-04-24T06:07:30;2.33;;;2.13;;
26223;SDS011;14820;48.682;8.890;2023-04-24T06:09:56;3.15;;;2.10;;
26223;SDS011;14820;48.682;8.890;2023-04-24T06:12:22;4.22;;;2.40;;
26223;SDS011;14820;48.682;8.890;2023-04-24T06:14:49;5.63;;;2.30;;
26223;SDS011;14820;48.682;8.890;2023-04-24T06:17:16;4.97;;;2.08;;
26223;SDS011;14820;48.682;8.890;2023-04-24T06:19:42;3.30;;;2.00;;
26223;SDS011;14820;48.682;8.890;2023-04-24T06:22:08;2.20;;;1.88;;
26223;SDS011;14820;48.682;8.890;2023-04-24T06:24:34;3.38;;;1.95;;
26223;SDS011;14820;48.682;8.890;2023-04-24T06:26:59;2.95;;;1.50;;
26223;SDS011;14820;48.682;8.890;2023-04-24T06:29:26;1.80;;;1.60;;
26223;SDS011;14820;48.682;8.890;2023-04-24T06:31:52;2.60;;;1.58;;
26223;SDS011;14820;48.682;8.890;2023-04-24T06:34:17;2.38;;;1.98;;
26223;SDS011;14820;48.682;8.890;2023-04-24T06:36:43;4.88;;;2.00;;
26223;SDS011;14820;48.682;8.890;2023-04-24T06:39:09;2.17;;;1.70;;
26223;SDS011;14820;48.682;8.890;2023-04-24T06:41:35;3.90;;;1.90;;
26223;SDS011;14820;48.682;8.890;2023-04-24T06:44:00;3.08;;;2.03;;
26223;SDS011;14820;48.682;8.890;2023-04-24T06:46:26;3.08;;;1.92;;
26223;SDS011;14820;48.682;8.890;2023-04-24T06:48:53;3.50;;;1.98;;
26223;SDS011;14820;48.682;8.890;2023-04-24T06:51:24;4.00;;;2.00;;
26223;SDS011;14820;48.682;8.890;2023-04-24T06:53:51;4.78;;;1.90;;
26223;SDS011;14820;48.682;8.890;2023-04-24T06:56:18;3.83;;;1.90;;
26223;SDS011;14820;48.682;8.890;2023-04-24T06:58:45;2.03;;;1.70;;
26223;SDS011;14820;48.682;8.890;2023-04-24T07:01:11;2.38;;;1.63;;
26223;SDS011;14820;48.682;8.890;2023-04-24T07:03:37;3.60;;;2.15;;
26223;SDS011;14820;48.682;8.890;2023-04-24T07:06:02;2.05;;;1.40;;
26223;SDS011;14820;48.682;8.890;2023-04-24T07:08:29;2.00;;;1.40;;
26223;SDS011;14820;48.682;8.890;2023-04-24T07:10:58;1.67;;;1.42;;
26223;SDS011;14820;48.682;8.890;2023-04-24T07:13:24;2.65;;;1.92;;
26223;SDS011;14820;48.682;8.890;2023-04-24T07:15:51;1.50;;;1.40;;
26223;SDS011;14820;48.682;8.890;2023-04-24T07:18:19;1.98;;;1.40;;
26223;SDS011;14820;48.682;8.890;2023-04-24T07:20:45;1.63;;;1.33;;
26223;SDS011;14820;48.682;8.890;2023-04-24T07:23:11;1.98;;;1.40;;
26223;SDS011;14820;48.682;8.890;2023-04-24T07:25:37;2.47;;;1.30;;
26223;SDS011;14820;48.682;8.890;2023-04-24T07:28:03;1.83;;;1.45;;
26223;SDS011;14820;48.682;8.890;2023-04-24T07:30:29;2.33;;;1.58;;
26223;SDS011;14820;48.682;8.890;2023-04-24T07:32:57;2.25;;;1.77;;
26223;SDS011;14820;48.682;8.890;2023-04-24T07:35:23;1.70;;;1.48;;
26223;SDS011;14820;48.682;8.890;2023-04-24T07:37:50;2.75;;;1.60;;
26223;SDS011;14820;48.682;8.890;2023-04-24T07:40:17;2.25;;;1.35;;
26223;SDS011;14820;48.682;8.890;2023-04-24T07:42:43;1.90;;;1.30;;
26223;SDS011;14820;48.682;8.890;2023-04-24T07:45:09;3.75;;;1.40;;
26223;SDS011;14820;48.682;8.890;2023-04-24T07:47:35;1.83;;;1.30;;
26223;SDS011;14820;48.682;8.890;2023-04-24T07:50:02;1.65;;;1.40;;
26223;SDS011;14820;48.682;8.890;2023-04-24T07:52:28;2.70;;;1.58;;
26223;SDS011;14820;48.682;8.890;2023-04-24T07:54:54;2.17;;;1.35;;
26223;SDS011;14820;48.682;8.890;2023-04-24T07:57:23;1.88;;;1.67;;
26223;SDS011;14820;48.682;8.890;2023-04-24T07:59:50;3.10;;;1.40;;
26223;SDS011;14820;48.682;8.890;2023-04-24T08:02:15;2.30;;;1.42;;
26223;SDS011;14820;48.682;8.890;2023-04-24T08:04:41;4.43;;;1.83;;
26223;SDS011;14820;48.682;8.890;2023-04-24T08:07:07;3.58;;;1.65;;
26223;SDS011;14820;48.682;8.890;2023-04-24T08:09:33;2.90;;;1.52;;
26223;SDS011;14820;48.682;8.890;2023-04-24T08:11:58;1.70;;;1.50;;
26223;SDS011;14820;48.682;8.890;2023-04-24T08:14:24;4.90;;;1.88;;
26223;SDS011;14820;48.682;8.890;2023-04-24T08:16:51;2.95;;;1.55;;
26223;SDS011;14820;48.682;8.890;2023-04-24T08:19:19;3.17;;;1.50;;
26223;SDS011;14820;48.682;8.890;2023-04-24T08:21:44;1.88;;;1.60;;
26223;SDS011;14820;48.682;8.890;2023-04-24T08:24:10;1.85;;;1.30;;
26223;SDS011;14820;48.682;8.890;2023-04-24T08:26:35;2.67;;;1.60;;
26223;SDS011;14820;48.682;8.890;2023-04-24T08:29:01;2.88;;;1.40;;
26223;SDS011;14820;48.682;8.890;2023-04-24T08:31:27;3.03;;;1.48;;
26223;SDS011;14820;48.682;8.890;2023-04-24T08:33:53;2.58;;;1.60;;
26223;SDS011;14820;48.682;8.890;2023-04-24T08:36:19;4.00;;;1.50;;
26223;SDS011;14820;48.682;8.890;2023-04-24T08:38:44;3.92;;;1.70;;
26223;SDS011;14820;48.682;8.890;2023-04-24T08:41:11;1.50;;;1.40;;
26223;SDS011;14820;48.682;8.890;2023-04-24T08:43:40;2.83;;;1.50;;
26223;SDS011;14820;48.682;8.890;2023-04-24T08:46:07;1.70;;;1.38;;
26223;SDS011;14820;48.682;8.890;2023-04-24T08:48:34;2.40;;;1.60;;
26223;SDS011;14820;48.682;8.890;2023-04-24T08:51:00;3.70;;;1.63;;
26223;SDS011;14820;48.682;8.890;2023-04-24T08:53:27;2.90;;;1.60;;
26223;SDS011;14820;48.682;8.890;2023-04-24T08:55:54;3.25;;;1.60;;
26223;SDS011;14820;48.682;8.890;2023-04-24T08:58:20;3.97;;;2.10;;
26223;SDS011;14820;48.682;8.890;2023-04-24T09:00:47;2.40;;;1.73;;
26223;SDS011;14820;48.682;8.890;2023-04-24T09:03:13;4.10;;;1.55;;
26223;SDS011;14820;48.682;8.890;2023-04-24T09:05:41;3.22;;;1.80;;
26223;SDS011;14820;48.682;8.890;2023-04-24T09:08:12;3.42;;;1.60;;
26223;SDS011;14820;48.682;8.890;2023-04-24T09:10:39;3.70;;;1.60;;
26223;SDS011;14820;48.682;8.890;2023-04-24T09:13:09;6.53;;;1.50;;
26223;SDS011;14820;48.682;8.890;2023-04-24T09:15:37;2.50;;;1.20;;
26223;SDS011;14820;48.682;8.890;2023-04-24T09:18:04;2.05;;;1.40;;
26223;SDS011;14820;48.682;8.890;2023-04-24T09:20:30;2.17;;;1.33;;
26223;SDS011;14820;48.682;8.890;2023-04-24T09:22:57;1.67;;;1.10;;
26223;SDS011;14820;48.682;8.890;2023-04-24T09:25:41;3.70;;;1.25;;
26223;SDS011;14820;48.682;8.890;2023-04-24T09:28:07;2.13;;;1.30;;
26223;SDS011;14820;48.682;8.890;2023-04-24T09:30:32;4.85;;;1.40;;
26223;SDS011;14820;48.682;8.890;2023-04-24T09:35:37;2.85;;;1.10;;
26223;SDS011;14820;48.682;8.890;2023-04-24T09:38:09;2.08;;;1.00;;
26223;SDS011;14820;48.682;8.890;2023-04-24T09:40:35;2.00;;;1.20;;
26223;SDS011;14820;48.682;8.890;2023-04-24T09:43:01;1.30;;;1.10;;
26223;SDS011;14820;48.682;8.890;2023-04-24T09:45:28;1.67;;;0.95;;
26223;SDS011;14820;48.682;8.890;2023-04-24T09:48:00;1.55;;;1.08;;
26223;SDS011;14820;48.682;8.890;2023-04-24T09:50:26;2.38;;;1.25;;
26223;SDS011;14820;48.682;8.890;2023-04-24T09:52:56;5.13;;;1.48;;
26223;SDS011;14820;48.682;8.890;2023-04-24T09:55:23;4.25;;;1.30;;
26223;SDS011;14820;48.682;8.890;2023-04-24T09:57:51;1.40;;;1.20;;
26223;SDS011;14820;48.682;8.890;2023-04-24T10:00:29;3.17;;;1.13;;
26223;SDS011;14820;48.682;8.890;2023-04-24T10:02:57;1.55;;;1.25;;
26223;SDS011;14820;48.682;8.890;2023-04-24T10:05:24;2.35;;;1.30;;
26223;SDS011;14820;48.682;8.890;2023-04-24T10:08:12;2.58;;;1.13;;
26223;SDS011;14820;48.682;8.890;2023-04-24T10:10:40;2.50;;;1.15;;
26223;SDS011;14820;48.682;8.890;2023-04-24T10:13:07;2.25;;;1.20;;
26223;SDS011;14820;48.682;8.890;2023-04-24T10:15:34;1.92;;;1.13;;
26223;SDS011;14820;48.682;8.890;2023-04-24T10:18:00;2.28;;;1.30;;
26223;SDS011;14820;48.682;8.890;2023-04-24T10:20:28;1.35;;;1.10;;
26223;SDS011;14820;48.682;8.890;2023-04-24T10:22:55;1.63;;;1.10;;
26223;SDS011;14820;48.682;8.890;2023-04-24T10:25:22;1.10;;;1.00;;
26223;SDS011;14820;48.682;8.890;2023-04-24T10:27:50;2.22;;;1.00;;
26223;SDS011;14820;48.682;8.890;2023-04-24T10:30:19;1.75;;;1.00;;
26223;SDS011;14820;48.682;8.890;2023-04-24T10:32:45;1.25;;;1.10;;
26223;SDS011;14820;48.682;8.890;2023-04-24T10:35:14;1.90;;;1.10;;
26223;SDS011;14820;48.682;8.890;2023-04-24T10:37:44;2.60;;;1.40;;
26223;SDS011;14820;48.682;8.890;2023-04-24T10:40:16;3.45;;;1.10;;
26223;SDS011;14820;48.682;8.890;2023-04-24T10:42:51;1.98;;;1.10;;
26223;SDS011;14820;48.682;8.890;2023-04-24T10:45:19;2.28;;;1.50;;
26223;SDS011;14820;48.682;8.890;2023-04-24T10:47:56;2.95;;;1.20;;
26223;SDS011;14820;48.682;8.890;2023-04-24T10:50:25;0.95;;;0.85;;
26223;SDS011;14820;48.682;8.890;2023-04-24T10:52:52;1.13;;;1.02;;
26223;SDS011;14820;48.682;8.890;2023-04-24T10:58:04;3.20;;;1.40;;
26223;SDS011;14820;48.682;8.890;2023-04-24T11:00:30;3.83;;;1.40;;
26223;SDS011;14820;48.682;8.890;2023-04-24T11:02:56;1.58;;;1.10;;
26223;SDS011;14820;48.682;8.890;2023-04-24T11:05:22;2.45;;;1.40;;
26223;SDS011;14820;48.682;8.890;2023-04-24T11:11:16;3.60;;;1.35;;
26223;SDS011;14820;48.682;8.890;2023-04-24T11:16:34;2.28;;;1.30;;
26223;SDS011;14820;48.682;8.890;2023-04-24T11:21:44;3.65;;;1.15;;
26223;SDS011;14820;48.682;8.890;2023-04-24T11:26:57;1.90;;;1.10;;
26223;SDS011;14820;48.682;8.890;2023-04-24T11:32:41;5.22;;;1.38;;
26223;SDS011;14820;48.682;8.890;2023-04-24T11:35:17;1.77;;;1.25;;
26223;SDS011;14820;48.682;8.890;2023-04-24T11:37:49;1.50;;;1.20;;
26223;SDS011;14820;48.682;8.890;2023-04-24T11:40:17;2.17;;;1.10;;
26223;SDS011;14820;48.682;8.890;2023-04-24T11:42:51;1.55;;;1.25;;
26223;SDS011;14820;48.682;8.890;2023-04-24T11:45:24;1.65;;;1.20;;
26223;SDS011;14820;48.682;8.890;2023-04-24T11:47:51;1.88;;;1.40;;
26223;SDS011;14820;48.682;8.890;2023-04-24T11:50:17;2.28;;;1.35;;
26223;SDS011;14820;48.682;8.890;2023-04-24T11:52:45;1.85;;;1.35;;
26223;SDS011;14820;48.682;8.890;2023-04-24T11:57:48;1.75;;;1.42;;
26223;SDS011;14820;48.682;8.890;2023-04-24T12:00:19;1.35;;;1.25;;
26223;SDS011;14820;48.682;8.890;2023-04-24T12:02:46;2.90;;;1.70;;
26223;SDS011;14820;48.682;8.890;2023-04-24T12:05:22;1.98;;;1.52;;
26223;SDS011;14820;48.682;8.890;2023-04-24T12:07:49;1.40;;;1.30;;
26223;SDS011;14820;48.682;8.890;2023-04-24T12:10:26;2.28;;;1.42;;
26223;SDS011;14820;48.682;8.890;2023-04-24T12:12:56;3.13;;;1.27;;
26223;SDS011;14820;48.682;8.890;2023-04-24T12:15:24;2.05;;;1.30;;
26223;SDS011;14820;48.682;8.890;2023-04-24T12:17:50;2.05;;;1.30;;
26223;SDS011;14820;48.682;8.890;2023-04-24T12:20:17;1.88;;;1.25;;
26223;SDS011;14820;48.682;8.890;2023-04-24T12:22:53;1.65;;;1.25;;
26223;SDS011;14820;48.682;8.890;2023-04-24T12:25:21;3.80;;;1.20;;
26223;SDS011;14820;48.682;8.890;2023-04-24T12:27:52;0.93;;;0.90;;
26223;SDS011;14820;48.682;8.890;2023-04-24T12:30:26;3.95;;;1.20;;
26223;SDS011;14820;48.682;8.890;2023-04-24T12:32:57;1.58;;;1.05;;
26223;SDS011;14820;48.682;8.890;2023-04-24T12:35:25;1.30;;;1.02;;
26223;SDS011;14820;48.682;8.890;2023-04-24T12:37:54;1.38;;;1.25;;
26223;SDS011;14820;48.682;8.890;2023-04-24T12:40:20;3.10;;;1.08;;
26223;SDS011;14820;48.682;8.890;2023-04-24T12:42:50;1.20;;;1.10;;
26223;SDS011;14820;48.682;8.890;2023-04-24T12:45:17;2.83;;;1.35;;
26223;SDS011;14820;48.682;8.890;2023-04-24T12:47:44;4.18;;;1.27;;
26223;SDS011;14820;48.682;8.890;2023-04-24T12:50:11;2.70;;;1.30;;
26223;SDS011;14820;48.682;8.890;2023-04-24T12:52:38;2.25;;;1.50;;
26223;SDS011;14820;48.682;8.890;2023-04-24T12:55:07;1.60;;;1.35;;
26223;SDS011;14820;48.682;8.890;2023-04-24T12:57:34;1.98;;;1.30;;
26223;SDS011;14820;48.682;8.890;2023-04-24T13:00:01;1.55;;;1.27;;
26223;SDS011;14820;48.682;8.890;2023-04-24T13:02:32;3.35;;;1.55;;
26223;SDS011;14820;48.682;8.890;2023-04-24T13:04:58;1.92;;;1.40;;
26223;SDS011;14820;48.682;8.890;2023-04-24T13:07:28;1.65;;;1.50;;
26223;SDS011;14820;48.682;8.890;2023-04-24T13:09:54;1.83;;;1.40;;
26223;SDS011;14820;48.682;8.890;2023-04-24T13:12:23;4.25;;;1.63;;
26223;SDS011;14820;48.682;8.890;2023-04-24T13:14:52;2.88;;;1.60;;
26223;SDS011;14820;48.682;8.890;2023-04-24T13:17:18;2.58;;;1.77;;
26223;SDS011;14820;48.682;8.890;2023-04-24T13:19:49;2.67;;;1.60;;
26223;SDS011;14820;48.682;8.890;2023-04-24T13:22:16;2.38;;;1.77;;
26223;SDS011;14820;48.682;8.890;2023-04-24T13:24:43;3.53;;;1.80;;
26223;SDS011;14820;48.682;8.890;2023-04-24T13:27:10;2.25;;;1.77;;
26223;SDS011;14820;48.682;8.890;2023-04-24T13:29:36;2.78;;;2.00;;
26223;SDS011;14820;48.682;8.890;2023-04-24T13:32:02;3.85;;;1.80;;
26223;SDS011;14820;48.682;8.890;2023-04-24T13:34:28;3.08;;;1.92;;
26223;SDS011;14820;48.682;8.890;2023-04-24T13:36:54;2.80;;;2.00;;
26223;SDS011;14820;48.682;8.890;2023-04-24T13:39:21;4.55;;;1.98;;
26223;SDS011;14820;48.682;8.890;2023-04-24T13:41:48;3.25;;;2.15;;
26223;SDS011;14820;48.682;8.890;2023-04-24T13:44:15;3.10;;;2.08;;
26223;SDS011;14820;48.682;8.890;2023-04-24T13:46:42;2.70;;;1.70;;
26223;SDS011;14820;48.682;8.890;2023-04-24T13:49:12;3.55;;;1.58;;
26223;SDS011;14820;48.682;8.890;2023-04-24T13:51:39;5.40;;;2.08;;
26223;SDS011;14820;48.682;8.890;2023-04-24T13:54:05;3.95;;;1.67;;
26223;SDS011;14820;48.682;8.890;2023-04-24T13:56:31;2.65;;;1.92;;
26223;SDS011;14820;48.682;8.890;2023-04-24T13:58:57;2.53;;;1.83;;
26223;SDS011;14820;48.682;8.890;2023-04-24T14:01:22;2.67;;;1.70;;
26223;SDS011;14820;48.682;8.890;2023-04-24T14:03:52;4.38;;;2.00;;
26223;SDS011;14820;48.682;8.890;2023-04-24T14:06:19;2.47;;;1.90;;
26223;SDS011;14820;48.682;8.890;2023-04-24T14:08:45;5.00;;;2.03;;
26223;SDS011;14820;48.682;8.890;2023-04-24T14:11:11;3.28;;;2.00;;
26223;SDS011;14820;48.682;8.890;2023-04-24T14:13:41;3.72;;;2.00;;
26223;SDS011;14820;48.682;8.890;2023-04-24T14:16:07;2.78;;;2.00;;
26223;SDS011;14820;48.682;8.890;2023-04-24T14:18:33;2.67;;;1.60;;
26223;SDS011;14820;48.682;8.890;2023-04-24T14:20:59;2.50;;;1.88;;
26223;SDS011;14820;48.682;8.890;2023-04-24T14:23:26;3.72;;;1.92;;
26223;SDS011;14820;48.682;8.890;2023-04-24T14:25:52;4.65;;;2.00;;
26223;SDS011;14820;48.682;8.890;2023-04-24T14:28:18;4.72;;;2.38;;
26223;SDS011;14820;48.682;8.890;2023-04-24T14:30:45;6.53;;;3.17;;
26223;SDS011;14820;48.682;8.890;2023-04-24T14:33:11;4.03;;;1.60;;
26223;SDS011;14820;48.682;8.890;2023-04-24T14:35:38;3.05;;;2.22;;
26223;SDS011;14820;48.682;8.890;2023-04-24T14:38:05;4.30;;;1.90;;
26223;SDS011;14820;48.682;8.890;2023-04-24T14:40:30;2.35;;;1.60;;
26223;SDS011;14820;48.682;8.890;2023-04-24T14:42:57;2.28;;;1.60;;
26223;SDS011;14820;48.682;8.890;2023-04-24T14:45:24;2.50;;;1.67;;
26223;SDS011;14820;48.682;8.890;2023-04-24T14:47:50;2.17;;;1.60;;
26223;SDS011;14820;48.682;8.890;2023-04-24T14:50:16;2.75;;;1.73;;
26223;SDS011;14820;48.682;8.890;2023-04-24T14:52:42;3.50;;;1.92;;
26223;SDS011;14820;48.682;8.890;2023-04-24T14:55:08;2.15;;;1.70;;
26223;SDS011;14820;48.682;8.890;2023-04-24T14:57:34;2.25;;;1.38;;
26223;SDS011;14820;48.682;8.890;2023-04-24T15:00:01;3.97;;;1.73;;
26223;SDS011;14820;48.682;8.890;2023-04-24T15:02:28;2.05;;;1.65;;
26223;SDS011;14820;48.682;8.890;2023-04-24T15:04:54;3.03;;;1.77;;
26223;SDS011;14820;48.682;8.890;2023-04-24T15:07:19;2.78;;;1.60;;
26223;SDS011;14820;48.682;8.890;2023-04-24T15:09:45;2.10;;;1.60;;